FIN52Y EGLL-EFHK
Flight info
| Callsign | FIN52Y |
|---|---|
| Flight time | N/A |
| Altitude | 41000 |
| Route | BPK Q295 MATCH P144 SAMHO DCT LARGA DCT SOPTO DCT RIRIP Y364 LAKUT |
| Aircraft | A359/H-SDE2E3GHIJ3J4J5LM1ORWXY/LB1D1 |
Departure
| Time | 2026-05-07 17:53 |
|---|---|
| Airport | London Heathrow Airport (EGLL) |
Arrival
| Time | N/A |
|---|---|
| Airport | Helsinki Vantaa Airport (EFHK) |
| Time | Latitude | Longitude | Altitude | Speed | Heading |
|---|---|---|---|---|---|
| 2026-05-07 17:33 | 51.46839 | -0.45573 | 92 ft | 0 kts | 360° |
| 2026-05-07 17:41 | 51.46800 | -0.45572 | 95 ft | 7 kts | 358° |
| 2026-05-07 17:42 | 51.46765 | -0.45566 | 93 ft | 3 kts | 341° |
| 2026-05-07 17:42 | 51.46755 | -0.45559 | 93 ft | 2 kts | 307° |
| 2026-05-07 17:42 | 51.46750 | -0.45544 | 93 ft | 2 kts | 276° |
| 2026-05-07 17:43 | 51.46750 | -0.45526 | 93 ft | 2 kts | 270° |
| 2026-05-07 17:43 | 51.46750 | -0.45522 | 92 ft | 0 kts | 270° |
| 2026-05-07 17:44 | 51.46750 | -0.45523 | 92 ft | 0 kts | 270° |
| 2026-05-07 17:44 | 51.46742 | -0.45541 | 95 ft | 6 kts | 232° |
| 2026-05-07 17:44 | 51.46676 | -0.45597 | 96 ft | 12 kts | 230° |
| 2026-05-07 17:45 | 51.46659 | -0.45794 | 96 ft | 23 kts | 268° |
| 2026-05-07 17:45 | 51.46660 | -0.46063 | 96 ft | 25 kts | 270° |
| 2026-05-07 17:45 | 51.46659 | -0.46350 | 96 ft | 27 kts | 270° |
| 2026-05-07 17:45 | 51.46659 | -0.46657 | 96 ft | 28 kts | 269° |
| 2026-05-07 17:46 | 51.46657 | -0.46984 | 96 ft | 30 kts | 269° |
| 2026-05-07 17:46 | 51.46655 | -0.47328 | 95 ft | 32 kts | 269° |
| 2026-05-07 17:46 | 51.46653 | -0.47669 | 92 ft | 17 kts | 270° |
| 2026-05-07 17:46 | 51.46654 | -0.47824 | 94 ft | 15 kts | 270° |
| 2026-05-07 17:47 | 51.46654 | -0.48009 | 92 ft | 18 kts | 269° |
| 2026-05-07 17:47 | 51.46653 | -0.48198 | 93 ft | 15 kts | 270° |
| 2026-05-07 17:47 | 51.46653 | -0.48381 | 93 ft | 17 kts | 270° |
| 2026-05-07 17:47 | 51.46652 | -0.48546 | 92 ft | 0 kts | 270° |
| 2026-05-07 17:48 | 51.46652 | -0.48558 | 96 ft | 3 kts | 270° |
| 2026-05-07 17:48 | 51.46652 | -0.48600 | 94 ft | 5 kts | 270° |
| 2026-05-07 17:48 | 51.46652 | -0.48670 | 94 ft | 3 kts | 270° |
| 2026-05-07 17:49 | 51.46647 | -0.48723 | 96 ft | 6 kts | 250° |
| 2026-05-07 17:49 | 51.46613 | -0.48762 | 94 ft | 6 kts | 200° |
| 2026-05-07 17:49 | 51.46607 | -0.48765 | 92 ft | 0 kts | 200° |
| 2026-05-07 17:51 | 51.46534 | -0.48781 | 92 ft | 16 kts | 169° |
| 2026-05-07 17:51 | 51.46481 | -0.48720 | 92 ft | 4 kts | 120° |
| 2026-05-07 17:51 | 51.46477 | -0.48635 | 94 ft | 6 kts | 88° |
| 2026-05-07 17:51 | 51.46478 | -0.48633 | 92 ft | 0 kts | 89° |
| 2026-05-07 17:52 | 51.46478 | -0.48587 | 92 ft | 23 kts | 89° |
| 2026-05-07 17:53 | 51.46479 | -0.47896 | 93 ft | 100 kts | 90° |
| 2026-05-07 17:53 | 51.46483 | -0.46419 | 98 ft | 163 kts | 92° |
| 2026-05-07 17:53 | 51.46505 | -0.44578 | 919 ft | 158 kts | 90° |
| 2026-05-07 17:53 | 51.46636 | -0.42823 | 1733 ft | 164 kts | 76° |
| 2026-05-07 17:54 | 51.47227 | -0.41096 | 2134 ft | 197 kts | 53° |
| 2026-05-07 17:54 | 51.48201 | -0.39251 | 2510 ft | 229 kts | 49° |
| 2026-05-07 17:54 | 51.49304 | -0.37253 | 3014 ft | 250 kts | 49° |
| 2026-05-07 17:54 | 51.50457 | -0.35128 | 3908 ft | 255 kts | 50° |
| 2026-05-07 17:55 | 51.51542 | -0.32849 | 4817 ft | 257 kts | 61° |
| 2026-05-07 17:55 | 51.52260 | -0.30185 | 5545 ft | 263 kts | 70° |
| 2026-05-07 17:55 | 51.52862 | -0.27400 | 5923 ft | 265 kts | 71° |
| 2026-05-07 17:55 | 51.53453 | -0.24633 | 5995 ft | 266 kts | 70° |
| 2026-05-07 17:56 | 51.54340 | -0.22028 | 6109 ft | 268 kts | 50° |
| 2026-05-07 17:56 | 51.55838 | -0.20237 | 6737 ft | 272 kts | 26° |
| 2026-05-07 17:56 | 51.57581 | -0.18972 | 7662 ft | 277 kts | 23° |
| 2026-05-07 17:56 | 51.59403 | -0.17839 | 8591 ft | 283 kts | 17° |
| 2026-05-07 17:57 | 51.61311 | -0.16928 | 9562 ft | 288 kts | 15° |
| 2026-05-07 17:57 | 51.62600 | -0.16344 | 10152 ft | 293 kts | 15° |
| 2026-05-07 17:57 | 51.65330 | -0.15109 | 10787 ft | 323 kts | 15° |
| 2026-05-07 17:57 | 51.67575 | -0.14090 | 11161 ft | 346 kts | 15° |
| 2026-05-07 17:58 | 51.69948 | -0.12986 | 11754 ft | 360 kts | 17° |
| 2026-05-07 17:58 | 51.72269 | -0.11338 | 12548 ft | 368 kts | 32° |
| 2026-05-07 17:58 | 51.74172 | -0.08559 | 13381 ft | 373 kts | 53° |
| 2026-05-07 17:58 | 51.75377 | -0.04850 | 14162 ft | 376 kts | 74° |
| 2026-05-07 17:59 | 51.76014 | -0.00768 | 14733 ft | 383 kts | 80° |
| 2026-05-07 17:59 | 51.76446 | 0.03598 | 15020 ft | 402 kts | 84° |
| 2026-05-07 17:59 | 51.76779 | 0.08212 | 15101 ft | 419 kts | 85° |
| 2026-05-07 17:59 | 51.77081 | 0.12889 | 15613 ft | 426 kts | 85° |
| 2026-05-07 18:00 | 51.77403 | 0.17659 | 16410 ft | 429 kts | 84° |
| 2026-05-07 18:00 | 51.78027 | 0.22420 | 17058 ft | 436 kts | 73° |
| 2026-05-07 18:00 | 51.79318 | 0.26879 | 17767 ft | 441 kts | 57° |
| 2026-05-07 18:00 | 51.81312 | 0.30675 | 18478 ft | 446 kts | 43° |
| 2026-05-07 18:01 | 51.83497 | 0.34175 | 19127 ft | 450 kts | 44° |
| 2026-05-07 18:01 | 51.85771 | 0.37694 | 19791 ft | 454 kts | 43° |
| 2026-05-07 18:01 | 51.88101 | 0.41211 | 20519 ft | 458 kts | 42° |
| 2026-05-07 18:01 | 51.90440 | 0.44746 | 21198 ft | 463 kts | 43° |
| 2026-05-07 18:02 | 51.95162 | 0.52025 | 22574 ft | 472 kts | 43° |
| 2026-05-07 18:02 | 52.01867 | 0.62424 | 24258 ft | 485 kts | 39° |
| 2026-05-07 18:02 | 52.11753 | 0.74232 | 26342 ft | 498 kts | 34° |
| 2026-05-07 18:03 | 52.21493 | 0.85337 | 28115 ft | 510 kts | 34° |
| 2026-05-07 18:03 | 52.31907 | 0.97340 | 30061 ft | 512 kts | 35° |
| 2026-05-07 18:03 | 52.42012 | 1.09066 | 31831 ft | 509 kts | 35° |
| 2026-05-07 18:03 | 52.44123 | 1.11529 | 32174 ft | 508 kts | 35° |
| 2026-05-07 18:04 | 52.50599 | 1.19103 | 33197 ft | 507 kts | 36° |
| 2026-05-07 18:04 | 52.60637 | 1.30886 | 34641 ft | 504 kts | 36° |
| 2026-05-07 18:04 | 52.70816 | 1.42902 | 35663 ft | 506 kts | 36° |
| 2026-05-07 18:04 | 52.80901 | 1.54876 | 36703 ft | 505 kts | 36° |
| 2026-05-07 18:05 | 52.90467 | 1.66298 | 37513 ft | 508 kts | 36° |
| 2026-05-07 18:05 | 53.00316 | 1.78126 | 38344 ft | 510 kts | 36° |
| 2026-05-07 18:05 | 53.07204 | 1.86437 | 38842 ft | 511 kts | 36° |
| 2026-05-07 18:05 | 53.10253 | 1.90128 | 39027 ft | 511 kts | 36° |
| 2026-05-07 18:06 | 53.20550 | 2.02641 | 39648 ft | 511 kts | 36° |
| 2026-05-07 18:06 | 53.30548 | 2.14626 | 40219 ft | 511 kts | 34° |
| 2026-05-07 18:06 | 53.40754 | 2.26084 | 40723 ft | 511 kts | 33° |
| 2026-05-07 18:06 | 53.51000 | 2.37831 | 41105 ft | 512 kts | 36° |
| 2026-05-07 18:07 | 53.60897 | 2.50429 | 41108 ft | 512 kts | 37° |